sensor_id;sensor_type;location;lat;lon;timestamp;temperature;humidity
36660;DHT22;22654;51.054;3.654;2023-03-01T00:01:05;1.40;99.90
36660;DHT22;22654;51.054;3.654;2023-03-01T00:03:32;1.50;99.90
36660;DHT22;22654;51.054;3.654;2023-03-01T00:05:58;1.40;99.90
36660;DHT22;22654;51.054;3.654;2023-03-01T00:08:24;1.30;99.90
36660;DHT22;22654;51.054;3.654;2023-03-01T00:10:51;0.90;99.90
36660;DHT22;22654;51.054;3.654;2023-03-01T00:13:24;0.80;99.90
36660;DHT22;22654;51.054;3.654;2023-03-01T00:15:50;0.70;99.90
36660;DHT22;22654;51.054;3.654;2023-03-01T00:18:16;0.70;99.90
36660;DHT22;22654;51.054;3.654;2023-03-01T00:20:42;0.90;99.90
36660;DHT22;22654;51.054;3.654;2023-03-01T00:23:14;1.10;99.90
36660;DHT22;22654;51.054;3.654;2023-03-01T00:25:43;1.30;99.90
36660;DHT22;22654;51.054;3.654;2023-03-01T00:28:09;1.40;99.90
36660;DHT22;22654;51.054;3.654;2023-03-01T00:30:34;1.30;99.90
36660;DHT22;22654;51.054;3.654;2023-03-01T00:33:00;1.20;99.90
36660;DHT22;22654;51.054;3.654;2023-03-01T00:35:26;1.20;99.90
36660;DHT22;22654;51.054;3.654;2023-03-01T00:37:51;1.10;99.90
36660;DHT22;22654;51.054;3.654;2023-03-01T00:40:23;1.10;99.90
36660;DHT22;22654;51.054;3.654;2023-03-01T00:42:49;1.10;99.90
36660;DHT22;22654;51.054;3.654;2023-03-01T00:45:15;1.00;99.90
36660;DHT22;22654;51.054;3.654;2023-03-01T00:47:41;0.80;99.90
36660;DHT22;22654;51.054;3.654;2023-03-01T00:50:07;0.80;99.90
36660;DHT22;22654;51.054;3.654;2023-03-01T00:52:33;0.90;99.90
36660;DHT22;22654;51.054;3.654;2023-03-01T00:54:59;1.10;99.90
36660;DHT22;22654;51.054;3.654;2023-03-01T00:57:25;1.10;99.90
36660;DHT22;22654;51.054;3.654;2023-03-01T00:59:51;1.10;99.90
36660;DHT22;22654;51.054;3.654;2023-03-01T01:02:18;1.00;99.90
36660;DHT22;22654;51.054;3.654;2023-03-01T01:04:44;1.00;99.90
36660;DHT22;22654;51.054;3.654;2023-03-01T01:07:10;1.00;99.90
36660;DHT22;22654;51.054;3.654;2023-03-01T01:09:35;0.90;99.90
36660;DHT22;22654;51.054;3.654;2023-03-01T01:12:02;0.90;99.90
36660;DHT22;22654;51.054;3.654;2023-03-01T01:14:28;0.80;99.90
36660;DHT22;22654;51.054;3.654;2023-03-01T01:16:54;0.80;99.90
36660;DHT22;22654;51.054;3.654;2023-03-01T01:19:20;0.80;99.90
36660;DHT22;22654;51.054;3.654;2023-03-01T01:21:47;0.80;99.90
36660;DHT22;22654;51.054;3.654;2023-03-01T01:24:13;0.80;99.90
36660;DHT22;22654;51.054;3.654;2023-03-01T01:26:39;0.70;99.90
36660;DHT22;22654;51.054;3.654;2023-03-01T01:29:06;0.70;99.90
36660;DHT22;22654;51.054;3.654;2023-03-01T01:31:33;0.70;99.90
36660;DHT22;22654;51.054;3.654;2023-03-01T01:33:59;0.70;99.90
36660;DHT22;22654;51.054;3.654;2023-03-01T01:36:25;0.70;99.90
36660;DHT22;22654;51.054;3.654;2023-03-01T01:38:51;0.70;99.90
36660;DHT22;22654;51.054;3.654;2023-03-01T01:41:17;0.80;99.90
36660;DHT22;22654;51.054;3.654;2023-03-01T01:43:44;0.90;99.90
36660;DHT22;22654;51.054;3.654;2023-03-01T01:46:15;0.90;99.90
36660;DHT22;22654;51.054;3.654;2023-03-01T01:48:42;1.00;99.90
36660;DHT22;22654;51.054;3.654;2023-03-01T01:51:10;1.00;99.90
36660;DHT22;22654;51.054;3.654;2023-03-01T01:53:36;1.00;99.90
36660;DHT22;22654;51.054;3.654;2023-03-01T01:56:02;1.00;99.90
36660;DHT22;22654;51.054;3.654;2023-03-01T01:58:29;1.00;99.90
36660;DHT22;22654;51.054;3.654;2023-03-01T02:00:55;0.90;99.90
36660;DHT22;22654;51.054;3.654;2023-03-01T02:03:23;0.90;99.90
36660;DHT22;22654;51.054;3.654;2023-03-01T02:05:55;1.00;99.90
36660;DHT22;22654;51.054;3.654;2023-03-01T02:08:23;1.10;99.90
36660;DHT22;22654;51.054;3.654;2023-03-01T02:10:50;1.00;99.90
36660;DHT22;22654;51.054;3.654;2023-03-01T02:13:17;0.80;99.90
36660;DHT22;22654;51.054;3.654;2023-03-01T02:15:43;0.80;99.90
36660;DHT22;22654;51.054;3.654;2023-03-01T02:18:12;0.80;99.90
36660;DHT22;22654;51.054;3.654;2023-03-01T02:20:56;0.80;99.90
36660;DHT22;22654;51.054;3.654;2023-03-01T02:23:23;0.70;99.90
36660;DHT22;22654;51.054;3.654;2023-03-01T02:28:34;0.60;99.90
36660;DHT22;22654;51.054;3.654;2023-03-01T02:31:01;0.30;99.90
36660;DHT22;22654;51.054;3.654;2023-03-01T02:33:47;0.20;99.90
36660;DHT22;22654;51.054;3.654;2023-03-01T02:36:15;0.60;99.90
36660;DHT22;22654;51.054;3.654;2023-03-01T02:38:42;0.80;99.90
36660;DHT22;22654;51.054;3.654;2023-03-01T02:41:08;0.70;99.90
36660;DHT22;22654;51.054;3.654;2023-03-01T02:43:35;0.60;99.90
36660;DHT22;22654;51.054;3.654;2023-03-01T02:46:08;0.60;99.90
36660;DHT22;22654;51.054;3.654;2023-03-01T02:48:41;0.50;99.90
36660;DHT22;22654;51.054;3.654;2023-03-01T02:51:18;0.40;99.90
36660;DHT22;22654;51.054;3.654;2023-03-01T02:56:48;0.60;99.90
36660;DHT22;22654;51.054;3.654;2023-03-01T02:59:19;0.50;99.90
36660;DHT22;22654;51.054;3.654;2023-03-01T03:01:46;0.60;99.90
36660;DHT22;22654;51.054;3.654;2023-03-01T03:04:13;0.50;99.90
36660;DHT22;22654;51.054;3.654;2023-03-01T03:06:44;0.30;99.90
36660;DHT22;22654;51.054;3.654;2023-03-01T03:09:10;0.20;99.90
36660;DHT22;22654;51.054;3.654;2023-03-01T03:11:36;0.40;99.90
36660;DHT22;22654;51.054;3.654;2023-03-01T03:14:02;0.50;99.90
36660;DHT22;22654;51.054;3.654;2023-03-01T03:16:28;0.40;99.90
36660;DHT22;22654;51.054;3.654;2023-03-01T03:18:55;0.50;99.90
36660;DHT22;22654;51.054;3.654;2023-03-01T03:21:33;0.60;99.90
36660;DHT22;22654;51.054;3.654;2023-03-01T03:23:59;0.60;99.90
36660;DHT22;22654;51.054;3.654;2023-03-01T03:26:25;0.50;99.90
36660;DHT22;22654;51.054;3.654;2023-03-01T03:28:51;0.50;99.90
36660;DHT22;22654;51.054;3.654;2023-03-01T03:31:16;0.50;99.90
36660;DHT22;22654;51.054;3.654;2023-03-01T03:33:42;0.50;99.90
36660;DHT22;22654;51.054;3.654;2023-03-01T03:36:08;0.40;99.90
36660;DHT22;22654;51.054;3.654;2023-03-01T03:38:39;0.40;99.90
36660;DHT22;22654;51.054;3.654;2023-03-01T03:41:06;0.20;99.90
36660;DHT22;22654;51.054;3.654;2023-03-01T03:43:33;0.30;99.90
36660;DHT22;22654;51.054;3.654;2023-03-01T03:45:59;0.50;99.90
36660;DHT22;22654;51.054;3.654;2023-03-01T03:48:26;0.50;99.90
36660;DHT22;22654;51.054;3.654;2023-03-01T03:50:52;0.50;99.90
36660;DHT22;22654;51.054;3.654;2023-03-01T03:53:19;0.40;99.90
36660;DHT22;22654;51.054;3.654;2023-03-01T03:55:45;0.40;99.90
36660;DHT22;22654;51.054;3.654;2023-03-01T03:58:14;0.40;99.90
36660;DHT22;22654;51.054;3.654;2023-03-01T04:00:43;0.40;99.90
36660;DHT22;22654;51.054;3.654;2023-03-01T04:03:10;0.40;99.90
36660;DHT22;22654;51.054;3.654;2023-03-01T04:05:36;0.20;99.90
36660;DHT22;22654;51.054;3.654;2023-03-01T04:08:02;0.30;99.90
36660;DHT22;22654;51.054;3.654;2023-03-01T04:10:29;0.40;99.90
36660;DHT22;22654;51.054;3.654;2023-03-01T04:12:55;0.50;99.90
36660;DHT22;22654;51.054;3.654;2023-03-01T04:15:21;0.50;99.90
36660;DHT22;22654;51.054;3.654;2023-03-01T04:17:50;0.50;99.90
36660;DHT22;22654;51.054;3.654;2023-03-01T04:20:16;0.40;99.90
36660;DHT22;22654;51.054;3.654;2023-03-01T04:22:42;0.20;99.90
36660;DHT22;22654;51.054;3.654;2023-03-01T04:25:08;0.20;99.90
36660;DHT22;22654;51.054;3.654;2023-03-01T04:27:35;0.10;99.90
36660;DHT22;22654;51.054;3.654;2023-03-01T04:30:02;0.30;99.90
36660;DHT22;22654;51.054;3.654;2023-03-01T04:32:28;0.50;99.90
36660;DHT22;22654;51.054;3.654;2023-03-01T04:34:54;0.20;99.90
36660;DHT22;22654;51.054;3.654;2023-03-01T04:37:20;0.10;99.90
36660;DHT22;22654;51.054;3.654;2023-03-01T04:39:46;0.40;99.90
36660;DHT22;22654;51.054;3.654;2023-03-01T04:42:13;0.40;99.90
36660;DHT22;22654;51.054;3.654;2023-03-01T04:44:39;0.40;99.90
36660;DHT22;22654;51.054;3.654;2023-03-01T04:47:05;0.40;99.90
36660;DHT22;22654;51.054;3.654;2023-03-01T04:49:31;0.40;99.90
36660;DHT22;22654;51.054;3.654;2023-03-01T04:51:57;0.40;99.90
36660;DHT22;22654;51.054;3.654;2023-03-01T04:54:27;0.20;99.90
36660;DHT22;22654;51.054;3.654;2023-03-01T04:56:53;0.30;99.90
36660;DHT22;22654;51.054;3.654;2023-03-01T04:59:19;0.40;99.90
36660;DHT22;22654;51.054;3.654;2023-03-01T05:01:48;0.30;99.90
36660;DHT22;22654;51.054;3.654;2023-03-01T05:04:14;0.30;99.90
36660;DHT22;22654;51.054;3.654;2023-03-01T05:06:39;0.20;99.90
36660;DHT22;22654;51.054;3.654;2023-03-01T05:09:05;0.20;99.90
36660;DHT22;22654;51.054;3.654;2023-03-01T05:11:31;0.10;99.90
36660;DHT22;22654;51.054;3.654;2023-03-01T05:14:01;0.10;99.90
36660;DHT22;22654;51.054;3.654;2023-03-01T05:16:27;0.20;99.90
36660;DHT22;22654;51.054;3.654;2023-03-01T05:18:53;0.30;99.90
36660;DHT22;22654;51.054;3.654;2023-03-01T05:21:20;0.30;99.90
36660;DHT22;22654;51.054;3.654;2023-03-01T05:23:46;0.10;99.90
36660;DHT22;22654;51.054;3.654;2023-03-01T05:26:12;-0.20;99.90
36660;DHT22;22654;51.054;3.654;2023-03-01T05:28:38;-0.50;99.90
36660;DHT22;22654;51.054;3.654;2023-03-01T05:31:05;-0.80;99.90
36660;DHT22;22654;51.054;3.654;2023-03-01T05:33:38;-0.90;99.90
36660;DHT22;22654;51.054;3.654;2023-03-01T05:36:05;-1.30;99.90
36660;DHT22;22654;51.054;3.654;2023-03-01T05:38:31;-1.00;99.90
36660;DHT22;22654;51.054;3.654;2023-03-01T05:40:57;-1.10;99.90
36660;DHT22;22654;51.054;3.654;2023-03-01T05:43:22;-1.10;99.90
36660;DHT22;22654;51.054;3.654;2023-03-01T05:45:48;-0.70;99.90
36660;DHT22;22654;51.054;3.654;2023-03-01T05:48:14;-0.50;99.90
36660;DHT22;22654;51.054;3.654;2023-03-01T05:50:41;-0.10;99.90
36660;DHT22;22654;51.054;3.654;2023-03-01T05:53:09;-0.10;99.90
36660;DHT22;22654;51.054;3.654;2023-03-01T05:55:35;-0.20;99.90
36660;DHT22;22654;51.054;3.654;2023-03-01T05:58:02;-0.40;99.90
36660;DHT22;22654;51.054;3.654;2023-03-01T06:00:28;-0.50;99.90
36660;DHT22;22654;51.054;3.654;2023-03-01T06:02:54;-0.70;99.90
36660;DHT22;22654;51.054;3.654;2023-03-01T06:05:20;-1.00;99.90
36660;DHT22;22654;51.054;3.654;2023-03-01T06:07:46;-1.20;99.90
36660;DHT22;22654;51.054;3.654;2023-03-01T06:10:12;-1.20;99.90
36660;DHT22;22654;51.054;3.654;2023-03-01T06:12:39;-1.30;99.90
36660;DHT22;22654;51.054;3.654;2023-03-01T06:15:05;-1.40;99.90
36660;DHT22;22654;51.054;3.654;2023-03-01T06:17:32;-1.40;99.90
36660;DHT22;22654;51.054;3.654;2023-03-01T06:19:58;-1.30;99.90
36660;DHT22;22654;51.054;3.654;2023-03-01T06:22:24;-1.40;99.90
36660;DHT22;22654;51.054;3.654;2023-03-01T06:24:50;-1.30;99.90
36660;DHT22;22654;51.054;3.654;2023-03-01T06:27:15;-1.30;99.90
36660;DHT22;22654;51.054;3.654;2023-03-01T06:29:41;-1.40;99.90
36660;DHT22;22654;51.054;3.654;2023-03-01T06:32:07;-1.60;99.90
36660;DHT22;22654;51.054;3.654;2023-03-01T06:34:33;-1.70;99.90
36660;DHT22;22654;51.054;3.654;2023-03-01T06:36:59;-1.80;99.90
36660;DHT22;22654;51.054;3.654;2023-03-01T06:39:25;-1.90;99.90
36660;DHT22;22654;51.054;3.654;2023-03-01T06:41:52;-1.90;99.90
36660;DHT22;22654;51.054;3.654;2023-03-01T06:44:18;-1.50;99.90
36660;DHT22;22654;51.054;3.654;2023-03-01T06:46:44;-1.30;99.90
36660;DHT22;22654;51.054;3.654;2023-03-01T06:49:10;-0.80;99.90
36660;DHT22;22654;51.054;3.654;2023-03-01T06:51:36;-0.30;99.90
36660;DHT22;22654;51.054;3.654;2023-03-01T06:54:03;-0.30;99.90
36660;DHT22;22654;51.054;3.654;2023-03-01T06:56:34;0.10;99.90
36660;DHT22;22654;51.054;3.654;2023-03-01T06:59:00;0.20;99.90
36660;DHT22;22654;51.054;3.654;2023-03-01T07:01:26;0.00;99.90
36660;DHT22;22654;51.054;3.654;2023-03-01T07:03:52;0.10;99.90
36660;DHT22;22654;51.054;3.654;2023-03-01T07:06:17;0.50;99.90
36660;DHT22;22654;51.054;3.654;2023-03-01T07:08:43;1.00;99.90
36660;DHT22;22654;51.054;3.654;2023-03-01T07:11:09;1.50;99.90
36660;DHT22;22654;51.054;3.654;2023-03-01T07:13:34;1.70;99.90
36660;DHT22;22654;51.054;3.654;2023-03-01T07:16:00;1.90;99.90
36660;DHT22;22654;51.054;3.654;2023-03-01T07:18:26;1.90;99.90
36660;DHT22;22654;51.054;3.654;2023-03-01T07:20:52;1.90;99.90
36660;DHT22;22654;51.054;3.654;2023-03-01T07:23:18;1.80;99.90
36660;DHT22;22654;51.054;3.654;2023-03-01T07:25:50;1.70;99.90
36660;DHT22;22654;51.054;3.654;2023-03-01T07:28:16;1.60;99.90
36660;DHT22;22654;51.054;3.654;2023-03-01T07:30:42;1.60;99.90
36660;DHT22;22654;51.054;3.654;2023-03-01T07:33:08;1.40;99.90
36660;DHT22;22654;51.054;3.654;2023-03-01T07:35:34;1.30;99.90
36660;DHT22;22654;51.054;3.654;2023-03-01T07:38:00;1.10;99.90
36660;DHT22;22654;51.054;3.654;2023-03-01T07:40:29;1.10;99.90
36660;DHT22;22654;51.054;3.654;2023-03-01T07:42:55;1.30;99.90
36660;DHT22;22654;51.054;3.654;2023-03-01T07:45:21;1.60;99.90
36660;DHT22;22654;51.054;3.654;2023-03-01T07:47:46;1.80;99.90
36660;DHT22;22654;51.054;3.654;2023-03-01T07:50:12;1.90;99.90
36660;DHT22;22654;51.054;3.654;2023-03-01T07:52:39;1.90;99.90
36660;DHT22;22654;51.054;3.654;2023-03-01T07:55:04;1.80;99.90
36660;DHT22;22654;51.054;3.654;2023-03-01T07:57:30;1.90;99.90
36660;DHT22;22654;51.054;3.654;2023-03-01T07:59:56;2.00;99.90
36660;DHT22;22654;51.054;3.654;2023-03-01T08:02:25;2.00;99.90
36660;DHT22;22654;51.054;3.654;2023-03-01T08:04:50;2.10;99.90
36660;DHT22;22654;51.054;3.654;2023-03-01T08:07:16;2.20;99.90
36660;DHT22;22654;51.054;3.654;2023-03-01T08:09:42;2.30;99.90
36660;DHT22;22654;51.054;3.654;2023-03-01T08:12:08;2.40;99.90
36660;DHT22;22654;51.054;3.654;2023-03-01T08:14:33;2.50;99.90
36660;DHT22;22654;51.054;3.654;2023-03-01T08:16:59;2.60;99.90
36660;DHT22;22654;51.054;3.654;2023-03-01T08:19:25;2.70;99.90
36660;DHT22;22654;51.054;3.654;2023-03-01T08:21:51;2.70;99.90
36660;DHT22;22654;51.054;3.654;2023-03-01T08:24:16;2.70;99.90
36660;DHT22;22654;51.054;3.654;2023-03-01T08:26:42;2.70;99.90
36660;DHT22;22654;51.054;3.654;2023-03-01T08:29:08;2.80;99.90
36660;DHT22;22654;51.054;3.654;2023-03-01T08:31:35;2.80;99.90
36660;DHT22;22654;51.054;3.654;2023-03-01T08:34:03;2.80;99.90
36660;DHT22;22654;51.054;3.654;2023-03-01T08:36:30;2.90;99.90
36660;DHT22;22654;51.054;3.654;2023-03-01T08:38:56;2.90;99.90
36660;DHT22;22654;51.054;3.654;2023-03-01T08:41:22;3.00;99.90
36660;DHT22;22654;51.054;3.654;2023-03-01T08:43:47;3.00;99.90
36660;DHT22;22654;51.054;3.654;2023-03-01T08:46:13;3.10;99.90
36660;DHT22;22654;51.054;3.654;2023-03-01T08:48:39;3.10;99.90
36660;DHT22;22654;51.054;3.654;2023-03-01T08:53:34;3.00;99.90
36660;DHT22;22654;51.054;3.654;2023-03-01T08:56:00;3.00;99.90
36660;DHT22;22654;51.054;3.654;2023-03-01T08:58:28;3.10;99.90
36660;DHT22;22654;51.054;3.654;2023-03-01T09:00:54;3.20;99.90
36660;DHT22;22654;51.054;3.654;2023-03-01T09:03:22;3.30;99.90
36660;DHT22;22654;51.054;3.654;2023-03-01T09:05:48;3.60;99.90
36660;DHT22;22654;51.054;3.654;2023-03-01T09:08:18;3.80;99.90
36660;DHT22;22654;51.054;3.654;2023-03-01T09:10:43;3.80;99.90
36660;DHT22;22654;51.054;3.654;2023-03-01T09:13:09;3.80;99.90
36660;DHT22;22654;51.054;3.654;2023-03-01T09:15:38;4.00;99.90
36660;DHT22;22654;51.054;3.654;2023-03-01T09:18:04;4.20;99.90
36660;DHT22;22654;51.054;3.654;2023-03-01T09:20:30;4.00;99.90
36660;DHT22;22654;51.054;3.654;2023-03-01T09:22:56;3.80;99.90
36660;DHT22;22654;51.054;3.654;2023-03-01T09:25:22;3.90;99.90
36660;DHT22;22654;51.054;3.654;2023-03-01T09:27:50;4.00;99.90
36660;DHT22;22654;51.054;3.654;2023-03-01T09:30:16;4.10;99.90
36660;DHT22;22654;51.054;3.654;2023-03-01T09:32:43;4.00;99.90
36660;DHT22;22654;51.054;3.654;2023-03-01T09:35:10;4.00;99.90
36660;DHT22;22654;51.054;3.654;2023-03-01T09:37:36;4.10;99.90
36660;DHT22;22654;51.054;3.654;2023-03-01T09:40:04;4.20;99.90
36660;DHT22;22654;51.054;3.654;2023-03-01T09:42:33;4.20;99.90
36660;DHT22;22654;51.054;3.654;2023-03-01T09:45:02;4.20;99.90
36660;DHT22;22654;51.054;3.654;2023-03-01T09:47:30;4.30;99.90
36660;DHT22;22654;51.054;3.654;2023-03-01T09:52:30;4.30;99.90
36660;DHT22;22654;51.054;3.654;2023-03-01T09:54:58;4.30;99.90
36660;DHT22;22654;51.054;3.654;2023-03-01T10:00:07;4.40;99.90
36660;DHT22;22654;51.054;3.654;2023-03-01T10:02:39;4.30;99.90
36660;DHT22;22654;51.054;3.654;2023-03-01T10:05:14;4.40;99.90
36660;DHT22;22654;51.054;3.654;2023-03-01T10:07:47;4.40;99.90
36660;DHT22;22654;51.054;3.654;2023-03-01T10:10:39;4.60;99.90
36660;DHT22;22654;51.054;3.654;2023-03-01T10:13:13;4.80;99.90
36660;DHT22;22654;51.054;3.654;2023-03-01T10:15:45;4.60;99.90
36660;DHT22;22654;51.054;3.654;2023-03-01T10:18:14;4.60;99.90
36660;DHT22;22654;51.054;3.654;2023-03-01T10:20:43;4.70;99.90
36660;DHT22;22654;51.054;3.654;2023-03-01T10:23:10;4.80;99.90
36660;DHT22;22654;51.054;3.654;2023-03-01T10:28:05;4.80;99.90
36660;DHT22;22654;51.054;3.654;2023-03-01T10:30:36;4.80;99.90
36660;DHT22;22654;51.054;3.654;2023-03-01T10:33:18;4.90;99.90
36660;DHT22;22654;51.054;3.654;2023-03-01T10:35:44;5.00;99.90
36660;DHT22;22654;51.054;3.654;2023-03-01T10:38:11;5.10;99.90
36660;DHT22;22654;51.054;3.654;2023-03-01T10:40:57;5.20;99.90
36660;DHT22;22654;51.054;3.654;2023-03-01T10:43:44;5.30;99.90
36660;DHT22;22654;51.054;3.654;2023-03-01T10:46:29;5.40;99.90
36660;DHT22;22654;51.054;3.654;2023-03-01T10:51:34;5.40;99.90
36660;DHT22;22654;51.054;3.654;2023-03-01T10:54:00;5.50;99.90
36660;DHT22;22654;51.054;3.654;2023-03-01T10:56:26;5.60;99.90
36660;DHT22;22654;51.054;3.654;2023-03-01T10:59:17;5.60;99.90
36660;DHT22;22654;51.054;3.654;2023-03-01T11:01:44;5.60;99.90
36660;DHT22;22654;51.054;3.654;2023-03-01T11:04:14;5.50;99.90
36660;DHT22;22654;51.054;3.654;2023-03-01T11:06:42;5.50;99.90
36660;DHT22;22654;51.054;3.654;2023-03-01T11:09:15;5.60;99.90
36660;DHT22;22654;51.054;3.654;2023-03-01T11:11:41;5.80;99.90
36660;DHT22;22654;51.054;3.654;2023-03-01T11:14:15;5.60;99.90
36660;DHT22;22654;51.054;3.654;2023-03-01T11:16:42;5.60;99.90
36660;DHT22;22654;51.054;3.654;2023-03-01T11:22:20;5.70;99.90
36660;DHT22;22654;51.054;3.654;2023-03-01T11:24:23;5.70;99.90
36660;DHT22;22654;51.054;3.654;2023-03-01T11:26:51;5.90;99.90
36660;DHT22;22654;51.054;3.654;2023-03-01T11:29:25;5.90;99.90
36660;DHT22;22654;51.054;3.654;2023-03-01T11:31:52;5.80;99.90
36660;DHT22;22654;51.054;3.654;2023-03-01T11:34:32;5.90;99.90
36660;DHT22;22654;51.054;3.654;2023-03-01T11:36:59;5.80;99.90
36660;DHT22;22654;51.054;3.654;2023-03-01T11:42:25;6.10;99.90
36660;DHT22;22654;51.054;3.654;2023-03-01T11:44:54;6.20;99.90
36660;DHT22;22654;51.054;3.654;2023-03-01T11:55:29;6.10;99.90
36660;DHT22;22654;51.054;3.654;2023-03-01T12:05:49;6.30;99.90
36660;DHT22;22654;51.054;3.654;2023-03-01T12:11:03;6.60;99.90
36660;DHT22;22654;51.054;3.654;2023-03-01T12:26:09;6.80;99.90
36660;DHT22;22654;51.054;3.654;2023-03-01T12:28:41;6.70;99.90
36660;DHT22;22654;51.054;3.654;2023-03-01T12:44:21;6.90;99.90
36660;DHT22;22654;51.054;3.654;2023-03-01T12:47:00;7.00;99.90
36660;DHT22;22654;51.054;3.654;2023-03-01T12:49:29;7.00;99.90
36660;DHT22;22654;51.054;3.654;2023-03-01T12:51:59;7.10;99.90
36660;DHT22;22654;51.054;3.654;2023-03-01T12:54:35;7.00;99.90
36660;DHT22;22654;51.054;3.654;2023-03-01T13:00:09;7.00;99.90
36660;DHT22;22654;51.054;3.654;2023-03-01T13:02:54;7.00;99.90
36660;DHT22;22654;51.054;3.654;2023-03-01T13:05:28;7.10;99.90
36660;DHT22;22654;51.054;3.654;2023-03-01T13:08:42;7.10;99.90
36660;DHT22;22654;51.054;3.654;2023-03-01T13:10:52;7.00;99.90
36660;DHT22;22654;51.054;3.654;2023-03-01T13:13:26;7.10;99.90
36660;DHT22;22654;51.054;3.654;2023-03-01T13:15:52;7.10;99.90
36660;DHT22;22654;51.054;3.654;2023-03-01T13:20:48;7.50;99.90
36660;DHT22;22654;51.054;3.654;2023-03-01T13:30:59;7.60;99.90
36660;DHT22;22654;51.054;3.654;2023-03-01T13:35:51;7.70;99.90
36660;DHT22;22654;51.054;3.654;2023-03-01T13:41:02;8.00;99.90
36660;DHT22;22654;51.054;3.654;2023-03-01T13:43:32;8.00;99.90
36660;DHT22;22654;51.054;3.654;2023-03-01T13:45:58;8.00;99.90
36660;DHT22;22654;51.054;3.654;2023-03-01T13:48:25;7.70;99.90
36660;DHT22;22654;51.054;3.654;2023-03-01T13:50:53;7.60;99.90
36660;DHT22;22654;51.054;3.654;2023-03-01T13:53:22;7.50;99.90
36660;DHT22;22654;51.054;3.654;2023-03-01T13:55:48;7.70;99.90
36660;DHT22;22654;51.054;3.654;2023-03-01T13:58:26;7.60;99.90
36660;DHT22;22654;51.054;3.654;2023-03-01T14:01:02;7.50;99.90
36660;DHT22;22654;51.054;3.654;2023-03-01T14:03:29;7.50;99.90
36660;DHT22;22654;51.054;3.654;2023-03-01T14:08:34;7.60;99.90
36660;DHT22;22654;51.054;3.654;2023-03-01T14:13:51;7.50;99.90
36660;DHT22;22654;51.054;3.654;2023-03-01T14:21:42;7.40;99.90
36660;DHT22;22654;51.054;3.654;2023-03-01T14:24:16;7.50;99.90
36660;DHT22;22654;51.054;3.654;2023-03-01T14:26:42;7.50;99.90
36660;DHT22;22654;51.054;3.654;2023-03-01T14:29:23;7.50;99.90
36660;DHT22;22654;51.054;3.654;2023-03-01T14:31:49;7.50;99.90
36660;DHT22;22654;51.054;3.654;2023-03-01T14:34:22;7.40;99.90
36660;DHT22;22654;51.054;3.654;2023-03-01T14:36:47;7.50;99.90
36660;DHT22;22654;51.054;3.654;2023-03-01T14:39:18;7.50;99.90
36660;DHT22;22654;51.054;3.654;2023-03-01T14:41:44;7.40;99.90
36660;DHT22;22654;51.054;3.654;2023-03-01T14:44:15;7.70;99.90
36660;DHT22;22654;51.054;3.654;2023-03-01T14:46:44;7.80;99.90
36660;DHT22;22654;51.054;3.654;2023-03-01T14:49:12;7.70;99.90
36660;DHT22;22654;51.054;3.654;2023-03-01T14:51:40;7.80;99.90
36660;DHT22;22654;51.054;3.654;2023-03-01T14:56:45;7.50;99.90
36660;DHT22;22654;51.054;3.654;2023-03-01T14:59:11;7.60;99.90
36660;DHT22;22654;51.054;3.654;2023-03-01T15:01:36;7.50;99.90
36660;DHT22;22654;51.054;3.654;2023-03-01T15:04:02;7.50;99.90
36660;DHT22;22654;51.054;3.654;2023-03-01T15:06:28;7.50;99.90
36660;DHT22;22654;51.054;3.654;2023-03-01T15:08:55;7.60;99.90
36660;DHT22;22654;51.054;3.654;2023-03-01T15:11:23;7.70;99.90
36660;DHT22;22654;51.054;3.654;2023-03-01T15:13:50;7.70;99.90
36660;DHT22;22654;51.054;3.654;2023-03-01T15:16:17;7.70;99.90
36660;DHT22;22654;51.054;3.654;2023-03-01T15:18:48;7.70;99.90
36660;DHT22;22654;51.054;3.654;2023-03-01T15:23:47;7.40;99.90
36660;DHT22;22654;51.054;3.654;2023-03-01T15:26:56;7.40;99.90
36660;DHT22;22654;51.054;3.654;2023-03-01T15:29:02;7.50;99.90
36660;DHT22;22654;51.054;3.654;2023-03-01T15:31:32;7.50;99.90
36660;DHT22;22654;51.054;3.654;2023-03-01T15:36:40;7.30;99.90
36660;DHT22;22654;51.054;3.654;2023-03-01T15:39:23;7.20;99.90
36660;DHT22;22654;51.054;3.654;2023-03-01T15:41:51;7.20;99.90
36660;DHT22;22654;51.054;3.654;2023-03-01T15:44:18;7.20;99.90
36660;DHT22;22654;51.054;3.654;2023-03-01T15:46:50;7.10;99.90
36660;DHT22;22654;51.054;3.654;2023-03-01T15:49:24;7.10;99.90
36660;DHT22;22654;51.054;3.654;2023-03-01T15:51:51;7.20;99.90
36660;DHT22;22654;51.054;3.654;2023-03-01T15:54:19;7.10;99.90
36660;DHT22;22654;51.054;3.654;2023-03-01T15:56:46;7.00;99.90
36660;DHT22;22654;51.054;3.654;2023-03-01T15:59:12;7.00;99.90
36660;DHT22;22654;51.054;3.654;2023-03-01T16:01:40;7.00;99.90
36660;DHT22;22654;51.054;3.654;2023-03-01T16:04:05;7.00;99.90
36660;DHT22;22654;51.054;3.654;2023-03-01T16:06:31;6.90;99.90
36660;DHT22;22654;51.054;3.654;2023-03-01T16:08:57;6.90;99.90
36660;DHT22;22654;51.054;3.654;2023-03-01T16:11:22;6.80;99.90
36660;DHT22;22654;51.054;3.654;2023-03-01T16:13:48;6.90;99.90
36660;DHT22;22654;51.054;3.654;2023-03-01T16:16:15;6.90;99.90
36660;DHT22;22654;51.054;3.654;2023-03-01T16:18:45;6.90;99.90
36660;DHT22;22654;51.054;3.654;2023-03-01T16:21:15;6.90;99.90
36660;DHT22;22654;51.054;3.654;2023-03-01T16:23:42;6.80;99.90
36660;DHT22;22654;51.054;3.654;2023-03-01T16:26:09;6.70;99.90
36660;DHT22;22654;51.054;3.654;2023-03-01T16:28:35;6.70;99.90
36660;DHT22;22654;51.054;3.654;2023-03-01T16:31:00;6.70;99.90
36660;DHT22;22654;51.054;3.654;2023-03-01T16:33:27;6.70;99.90
36660;DHT22;22654;51.054;3.654;2023-03-01T16:35:52;6.70;99.90
36660;DHT22;22654;51.054;3.654;2023-03-01T16:38:18;6.60;99.90
36660;DHT22;22654;51.054;3.654;2023-03-01T16:40:48;6.60;99.90
36660;DHT22;22654;51.054;3.654;2023-03-01T16:43:14;7.80;99.90
36660;DHT22;22654;51.054;3.654;2023-03-01T16:45:39;8.00;99.90
36660;DHT22;22654;51.054;3.654;2023-03-01T16:48:06;7.60;99.90
36660;DHT22;22654;51.054;3.654;2023-03-01T16:50:32;7.10;99.90
36660;DHT22;22654;51.054;3.654;2023-03-01T16:52:57;6.70;99.90
36660;DHT22;22654;51.054;3.654;2023-03-01T16:55:23;6.60;99.90
36660;DHT22;22654;51.054;3.654;2023-03-01T16:57:49;6.50;99.90
36660;DHT22;22654;51.054;3.654;2023-03-01T17:00:15;6.40;99.90
36660;DHT22;22654;51.054;3.654;2023-03-01T17:02:41;6.30;99.90
36660;DHT22;22654;51.054;3.654;2023-03-01T17:05:07;6.20;99.90
36660;DHT22;22654;51.054;3.654;2023-03-01T17:07:33;6.20;99.90
36660;DHT22;22654;51.054;3.654;2023-03-01T17:10:00;6.10;99.90
36660;DHT22;22654;51.054;3.654;2023-03-01T17:12:25;6.00;99.90
36660;DHT22;22654;51.054;3.654;2023-03-01T17:14:51;6.00;99.90
36660;DHT22;22654;51.054;3.654;2023-03-01T17:17:17;5.90;99.90
36660;DHT22;22654;51.054;3.654;2023-03-01T17:19:42;5.90;99.90
36660;DHT22;22654;51.054;3.654;2023-03-01T17:22:09;5.90;99.90
36660;DHT22;22654;51.054;3.654;2023-03-01T17:24:36;5.80;99.90
36660;DHT22;22654;51.054;3.654;2023-03-01T17:27:02;5.80;99.90
36660;DHT22;22654;51.054;3.654;2023-03-01T17:29:28;5.80;99.90
36660;DHT22;22654;51.054;3.654;2023-03-01T17:31:54;5.70;99.90
36660;DHT22;22654;51.054;3.654;2023-03-01T17:34:23;5.70;99.90